createdAt,value
2017-11-22T00:00:04.316Z,1007.2
2017-11-22T00:05:03.490Z,1006.92
2017-11-22T00:10:03.163Z,1007.06
2017-11-22T00:15:03.619Z,1007.06
2017-11-22T00:20:03.025Z,1007.05
2017-11-22T00:25:03.450Z,1006.95
2017-11-22T00:30:02.957Z,1007.16
2017-11-22T00:35:03.471Z,1007.05
2017-11-22T00:40:03.120Z,1006.87
2017-11-22T00:45:03.564Z,1006.78
2017-11-22T00:50:03.241Z,1006.5
2017-11-22T00:55:03.664Z,1006.56
2017-11-22T01:00:03.227Z,1006.54
2017-11-22T01:05:03.047Z,1006.57
2017-11-22T01:10:03.583Z,1006.51
2017-11-22T01:15:03.083Z,1006.45
2017-11-22T01:20:03.495Z,1006.48
2017-11-22T01:25:02.944Z,1006.44
2017-11-22T01:30:03.416Z,1006.55
2017-11-22T01:35:02.941Z,1006.32
2017-11-22T01:40:03.554Z,1006.31
2017-11-22T01:45:02.967Z,1006.38
2017-11-22T01:50:03.427Z,1006.43
2017-11-22T01:55:03.075Z,1006.32
2017-11-22T02:00:03.567Z,1006.3
2017-11-22T02:05:03.166Z,1006.24
2017-11-22T02:10:03.677Z,1006.25
2017-11-22T02:15:03.311Z,1006.18
2017-11-22T02:20:02.993Z,1006.06
2017-11-22T02:25:03.683Z,1006.11
2017-11-22T02:30:03.215Z,1006.12
2017-11-22T02:35:02.732Z,1006.27
2017-11-22T02:40:03.341Z,1006.42
2017-11-22T02:45:02.921Z,1006.18
2017-11-22T02:50:03.502Z,1006.03
2017-11-22T02:55:02.952Z,1006.08
2017-11-22T03:00:03.470Z,1006.09
2017-11-22T03:05:03.043Z,1006
2017-11-22T03:10:02.666Z,1006
2017-11-22T03:15:03.266Z,1006.03
2017-11-22T03:20:02.873Z,1005.96
2017-11-22T03:25:03.367Z,1006.18
2017-11-22T03:30:02.993Z,1005.8
2017-11-22T03:35:03.642Z,1005.74
2017-11-22T03:40:03.279Z,1005.71
2017-11-22T03:45:03.692Z,1005.67
2017-11-22T03:50:03.162Z,1005.74
2017-11-22T03:55:03.657Z,1005.53
2017-11-22T04:00:03.083Z,1005.54
2017-11-22T04:05:03.674Z,1005.58
2017-11-22T04:10:03.313Z,1005.61
2017-11-22T04:15:02.829Z,1005.59
2017-11-22T04:20:03.303Z,1005.43
2017-11-22T04:25:02.743Z,1005.43
2017-11-22T04:30:03.208Z,1005.58
2017-11-22T04:35:02.691Z,1005.53
2017-11-22T04:40:03.341Z,1005.47
2017-11-22T04:45:02.903Z,1005.55
2017-11-22T04:50:03.472Z,1005.42
2017-11-22T04:55:03.032Z,1005.36
2017-11-22T05:00:03.473Z,1005.48
2017-11-22T05:05:03.002Z,1005.45
2017-11-22T05:10:03.534Z,1005.37
2017-11-22T05:15:03.175Z,1005.24
2017-11-22T05:20:03.690Z,1005.17
2017-11-22T05:25:03.167Z,1005.2
2017-11-22T05:30:02.750Z,1005.33
2017-11-22T05:35:03.387Z,1005.21
2017-11-22T05:40:03.015Z,1005.26
2017-11-22T05:45:03.655Z,1005.17
2017-11-22T05:50:03.233Z,1005.11
2017-11-22T05:55:03.605Z,1005.03
2017-11-22T06:00:03.246Z,1004.93
2017-11-22T06:05:02.894Z,1005.1
2017-11-22T06:10:03.395Z,1005
2017-11-22T06:15:03.005Z,1005.07
2017-11-22T06:20:03.629Z,1005.21
2017-11-22T06:25:03.163Z,1005.5
2017-11-22T06:30:02.771Z,1005.19
2017-11-22T06:35:03.337Z,1005.22
2017-11-22T06:40:02.900Z,1005.34
2017-11-22T06:45:03.524Z,1005.21
2017-11-22T06:50:03.051Z,1005.29
2017-11-22T06:55:03.550Z,1005.53
2017-11-22T07:00:03.086Z,1005.35
2017-11-22T07:05:03.598Z,1005.44
2017-11-22T07:10:03.279Z,1005.42
2017-11-22T07:15:02.753Z,1005.47
2017-11-22T07:20:03.324Z,1005.53
2017-11-22T07:25:02.944Z,1005.38
2017-11-22T07:30:03.626Z,1005.58
2017-11-22T07:35:03.206Z,1005.52
2017-11-22T07:40:02.694Z,1005.37
2017-11-22T07:45:03.160Z,1005.34
2017-11-22T07:50:02.853Z,1005.58
2017-11-22T07:55:03.310Z,1005.68
2017-11-22T08:00:02.768Z,1005.64
2017-11-22T08:05:03.268Z,1005.78
2017-11-22T08:10:02.773Z,1005.71
2017-11-22T08:15:03.339Z,1005.74
2017-11-22T08:20:02.950Z,1005.78
2017-11-22T08:25:03.549Z,1006.59
2017-11-22T08:30:03.334Z,1005.72
2017-11-22T08:35:03.219Z,1005.9
2017-11-22T08:40:02.841Z,1005.92
2017-11-22T08:45:03.379Z,1005.91
2017-11-22T08:50:02.914Z,1006
2017-11-22T08:55:03.576Z,1006.05
2017-11-22T09:00:03.094Z,1006.03
2017-11-22T09:05:02.803Z,1006.11
2017-11-22T09:10:03.486Z,1006.16
2017-11-22T09:15:03.128Z,1006.18
2017-11-22T09:20:02.836Z,1006.13
2017-11-22T09:25:03.577Z,1006.12
2017-11-22T09:30:03.015Z,1006.34
2017-11-22T09:35:03.761Z,1006.56
2017-11-22T09:40:03.308Z,1006.54
2017-11-22T09:45:02.785Z,1006.42
2017-11-22T09:50:03.359Z,1006.55
2017-11-22T09:55:02.831Z,1006.48
2017-11-22T10:00:03.405Z,1006.5
2017-11-22T10:10:03.469Z,1006.69
2017-11-22T10:15:03.021Z,1006.62
2017-11-22T10:20:02.743Z,1006.72
2017-11-22T10:25:03.148Z,1006.6
2017-11-22T10:30:03.571Z,1006.62
2017-11-22T10:35:02.987Z,1006.49
2017-11-22T10:40:03.598Z,1006.56
2017-11-22T10:45:03.044Z,1006.55
2017-11-22T10:50:03.563Z,1006.61
2017-11-22T10:55:03.009Z,1006.59
2017-11-22T11:00:03.521Z,1006.6
2017-11-22T11:05:03.221Z,1006.6
2017-11-22T11:10:02.882Z,1006.4
2017-11-22T11:15:03.533Z,1006.46
2017-11-22T11:20:03.249Z,1006.46
2017-11-22T11:25:02.755Z,1006.33
2017-11-22T11:30:03.373Z,1006.33
2017-11-22T11:35:03.116Z,1006.3
2017-11-22T11:40:02.821Z,1006.28
2017-11-22T11:45:03.381Z,1006.2
2017-11-22T11:50:02.892Z,1006.06
2017-11-22T11:55:03.428Z,1006.04
2017-11-22T12:05:03.600Z,1005.92
2017-11-22T12:10:03.244Z,1005.78
2017-11-22T12:15:02.793Z,1005.85
2017-11-22T12:20:03.408Z,1005.68
2017-11-22T12:25:02.791Z,1005.66
2017-11-22T12:30:03.273Z,1005.74
2017-11-22T12:35:02.958Z,1005.72
2017-11-22T12:40:03.475Z,1005.55
2017-11-22T12:45:02.914Z,1005.64
2017-11-22T12:50:03.364Z,1005.58
2017-11-22T12:55:03.001Z,1005.42
2017-11-22T13:00:03.594Z,1005.47
2017-11-22T13:05:03.039Z,1005.39
2017-11-22T13:10:02.730Z,1005.32
2017-11-22T13:15:03.363Z,1005.37
2017-11-22T13:20:03.038Z,1005.2
2017-11-22T13:25:03.692Z,1005.17
2017-11-22T13:30:03.193Z,1005.35
2017-11-22T13:35:02.843Z,1005.09
2017-11-22T13:40:03.471Z,1004.96
2017-11-22T13:45:03.091Z,1004.91
2017-11-22T13:50:02.799Z,1004.75
2017-11-22T13:55:03.231Z,1004.68
2017-11-22T14:00:03.641Z,1004.66
2017-11-22T14:05:03.094Z,1004.52
2017-11-22T14:10:02.747Z,1004.46
2017-11-22T14:15:03.240Z,1004.38
2017-11-22T14:20:02.883Z,1004.29
2017-11-22T14:25:03.378Z,1004.26
2017-11-22T14:30:02.855Z,1004.25
2017-11-22T14:35:03.300Z,1004.14
2017-11-22T14:40:02.994Z,1004.18
2017-11-22T14:45:03.567Z,1004.16
2017-11-22T14:50:03.107Z,1004.08
2017-11-22T14:55:03.699Z,1004.07
2017-11-22T15:00:03.352Z,1004.12
2017-11-22T15:05:02.781Z,1004.01
2017-11-22T15:10:03.337Z,1003.98
2017-11-22T15:15:02.813Z,1003.89
2017-11-22T15:20:03.381Z,1003.91
2017-11-22T15:25:02.824Z,1003.95
2017-11-22T15:30:03.489Z,1003.75
2017-11-22T15:35:03.115Z,1003.77
2017-11-22T15:40:02.761Z,1003.75
2017-11-22T15:45:03.257Z,1003.74
2017-11-22T15:50:02.871Z,1003.66
2017-11-22T15:55:03.535Z,1003.63
2017-11-22T16:00:02.991Z,1003.5
2017-11-22T16:05:03.557Z,1003.36
2017-11-22T16:10:03.051Z,1003.24
2017-11-22T16:15:02.719Z,1003.09
2017-11-22T16:25:03.024Z,1003.09
2017-11-22T16:30:03.607Z,1002.99
2017-11-22T16:35:03.206Z,1002.93
2017-11-22T16:45:03.426Z,1003.03
2017-11-22T16:50:03.052Z,1003.05
2017-11-22T16:55:03.676Z,1003.04
2017-11-22T17:00:03.244Z,1002.99
2017-11-22T17:05:02.737Z,1003.02
2017-11-22T17:10:03.375Z,1003
2017-11-22T17:15:02.871Z,1002.99
2017-11-22T17:20:03.353Z,1002.99
2017-11-22T17:25:02.815Z,1002.96
2017-11-22T17:30:03.374Z,1002.98
2017-11-22T17:35:02.893Z,1002.93
2017-11-22T17:40:03.557Z,1002.9
2017-11-22T17:45:02.992Z,1002.85
2017-11-22T17:50:03.669Z,1002.91
2017-11-22T17:55:03.243Z,1002.95
2017-11-22T18:00:02.846Z,1002.95
2017-11-22T18:05:03.359Z,1002.88
2017-11-22T18:10:03.005Z,1002.81
2017-11-22T18:15:03.651Z,1002.79
2017-11-22T18:20:03.303Z,1002.83
2017-11-22T18:25:02.731Z,1002.76
2017-11-22T18:30:03.132Z,1002.83
2017-11-22T18:35:03.655Z,1002.76
2017-11-22T18:40:03.161Z,1002.75
2017-11-22T18:45:02.745Z,1002.69
2017-11-22T18:50:03.305Z,1002.56
2017-11-22T18:55:02.818Z,1002.51
2017-11-22T19:00:03.332Z,1002.38
2017-11-22T19:05:02.933Z,1002.34
2017-11-22T19:10:03.590Z,1002.15
2017-11-22T19:15:03.178Z,1002.07
2017-11-22T19:20:02.811Z,1002.13
2017-11-22T19:25:03.270Z,1002.06
2017-11-22T19:30:02.790Z,1002.07
2017-11-22T19:35:03.316Z,1002.05
2017-11-22T19:40:02.953Z,1001.93
2017-11-22T19:45:03.495Z,1002.01
2017-11-22T19:50:03.122Z,1001.92
2017-11-22T19:55:02.768Z,1001.79
2017-11-22T20:00:03.325Z,1001.82
2017-11-22T20:05:02.783Z,1001.8
2017-11-22T20:10:03.298Z,1001.81
2017-11-22T20:15:02.953Z,1001.76
2017-11-22T20:20:03.438Z,1001.69
2017-11-22T20:25:02.980Z,1001.57
2017-11-22T20:30:03.557Z,1001.54
2017-11-22T20:35:03.242Z,1001.48
2017-11-22T20:40:02.872Z,1001.44
2017-11-22T20:45:03.494Z,1001.35
2017-11-22T20:50:03.028Z,1001.42
2017-11-22T20:55:03.566Z,1001.38
2017-11-22T21:00:03.075Z,1001.32
2017-11-22T21:05:03.544Z,1001.11
2017-11-22T21:10:03.161Z,1001.26
2017-11-22T21:15:03.577Z,1001.38
2017-11-22T21:20:03.176Z,1001.16
2017-11-22T21:25:03.687Z,1001.22
2017-11-22T21:30:03.207Z,1001.29
2017-11-22T21:35:02.715Z,1001.19
2017-11-22T21:40:03.228Z,1001.18
2017-11-22T21:45:02.812Z,1001.13
2017-11-22T21:50:03.329Z,1001.06
2017-11-22T21:55:02.861Z,1001.07
2017-11-22T22:00:03.599Z,1000.95
2017-11-22T22:05:03.226Z,1000.88
2017-11-22T22:10:02.705Z,1000.77
2017-11-22T22:15:03.372Z,1000.76
2017-11-22T22:20:02.816Z,1000.64
2017-11-22T22:25:03.266Z,1000.63
2017-11-22T22:30:03.085Z,1000.64
2017-11-22T22:35:02.722Z,1000.71
2017-11-22T22:40:03.358Z,1000.74
2017-11-22T22:45:02.951Z,1000.62
2017-11-22T22:50:03.435Z,1000.53
2017-11-22T22:55:02.996Z,1000.55
2017-11-22T23:00:03.509Z,1000.52
2017-11-22T23:05:03.023Z,1000.39
2017-11-22T23:10:03.698Z,1000.65
2017-11-22T23:15:03.346Z,1000.46
2017-11-22T23:20:02.769Z,1000.64
2017-11-22T23:25:03.411Z,1000.48
2017-11-22T23:30:02.879Z,1000.38
2017-11-22T23:35:03.326Z,1000.4
2017-11-22T23:40:02.848Z,1000.36
2017-11-22T23:45:03.358Z,1000.35
2017-11-22T23:50:03.011Z,1000.23
2017-11-22T23:55:03.605Z,1000.29
